KSAR/SAR METAR and TAF weather

Enter ICAO airport designator
Station Type Date Time Source
KSAR METAR 2020/09/22 04:55 UTC NOAA

KSAR 220455Z AUTO 00000KT 10SM CLR 12/11 A3027 RMK AO2 T01180113


Station Type Date Time Source
KSAR Decoded METAR 2020/09/22 04:55 UTC NOAA

Sparta, Sparta Community-Hunter Field Airport, IL, United States (KSAR) 38-08-56N 089-41-55W
Sep 22, 2020 - 12:55 AM EDT / 2020.09.22 0455 UTC
Wind: Calm:0
Visibility: 10 mile(s):0
Sky conditions: clear
Temperature: 53.2 F (11.8 C)
Dew Point: 52.3 F (11.3 C)
Relative Humidity: 96%
Pressure (altimeter): 30.27 in. Hg (1025 hPa)
ob: KSAR 220455Z AUTO 00000KT 10SM CLR 12/11 A3027 RMK AO2 T01180113
cycle: 5

Station Type Date Time Source
KSAR TAF UTC NOAA

Error!

Example: see airport list